Terminal Aerodrome Forecast
Issued by NWS

Home | Current Version | Previous Version | Text Only | Print | Product List | Glossary On
Versions: 1 2 3 4 5 6 7 8 9 10 11 12 13 14 15 16 17 18 19 20 21 22 23 24 25 26 27 28 29 30 31 32 33 34 35 36 37
000
FTUS41 KOKX 240232 AAB
TAFSWF
TAF AMD
KSWF 240232Z 2403/2506 03022G36KT 3SM RASNPL OVC017
     FM240800 04017G34KT 3SM RAPL BR OVC016
     FM240900 04017G33KT 3SM RAPL BR OVC020
     FM241100 04016G28KT 5SM -RA BR OVC015
     FM241500 03012KT 5SM -RA BR OVC007
     FM241700 02010KT 5SM -RA BR OVC010
     FM242000 35011KT 5SM -RA BR OVC010
     FM242300 34011KT 5SM -RAPL BR OVC016
     FM250400 32009KT P6SM BKN070
      AMD NOT SKED=

USA.gov is the U.S. government's official web portal to all federal, state and local government web resources and services.